sensor_id;sensor_type;location;lat;lon;timestamp;P1;durP1;ratioP1;P2;durP2;ratioP2
35907;SDS011;22003;50.320;8.054;2022-08-20T00:00:03;2.83;;;1.98;;
35907;SDS011;22003;50.320;8.054;2022-08-20T00:02:37;3.10;;;2.38;;
35907;SDS011;22003;50.320;8.054;2022-08-20T00:05:09;2.80;;;2.00;;
35907;SDS011;22003;50.320;8.054;2022-08-20T00:07:34;2.78;;;2.03;;
35907;SDS011;22003;50.320;8.054;2022-08-20T00:10:00;2.72;;;1.90;;
35907;SDS011;22003;50.320;8.054;2022-08-20T00:12:25;5.28;;;2.00;;
35907;SDS011;22003;50.320;8.054;2022-08-20T00:14:51;2.58;;;1.90;;
35907;SDS011;22003;50.320;8.054;2022-08-20T00:17:16;2.17;;;1.67;;
35907;SDS011;22003;50.320;8.054;2022-08-20T00:19:41;3.60;;;2.63;;
35907;SDS011;22003;50.320;8.054;2022-08-20T00:22:07;6.15;;;1.73;;
35907;SDS011;22003;50.320;8.054;2022-08-20T00:24:32;3.90;;;2.00;;
35907;SDS011;22003;50.320;8.054;2022-08-20T00:26:58;2.10;;;1.88;;
35907;SDS011;22003;50.320;8.054;2022-08-20T00:29:24;2.58;;;1.98;;
35907;SDS011;22003;50.320;8.054;2022-08-20T00:31:50;1.70;;;1.60;;
35907;SDS011;22003;50.320;8.054;2022-08-20T00:34:15;2.50;;;2.15;;
35907;SDS011;22003;50.320;8.054;2022-08-20T00:36:40;3.13;;;2.13;;
35907;SDS011;22003;50.320;8.054;2022-08-20T00:39:06;3.28;;;1.85;;
35907;SDS011;22003;50.320;8.054;2022-08-20T00:41:31;2.75;;;2.08;;
35907;SDS011;22003;50.320;8.054;2022-08-20T00:44:10;3.05;;;1.95;;
35907;SDS011;22003;50.320;8.054;2022-08-20T00:46:39;1.60;;;1.40;;
35907;SDS011;22003;50.320;8.054;2022-08-20T00:49:15;3.22;;;1.77;;
35907;SDS011;22003;50.320;8.054;2022-08-20T00:51:47;2.75;;;2.25;;
35907;SDS011;22003;50.320;8.054;2022-08-20T00:54:40;3.40;;;1.90;;
35907;SDS011;22003;50.320;8.054;2022-08-20T00:57:22;2.15;;;1.50;;
35907;SDS011;22003;50.320;8.054;2022-08-20T00:59:53;2.67;;;1.70;;
35907;SDS011;22003;50.320;8.054;2022-08-20T01:02:21;2.47;;;2.00;;
35907;SDS011;22003;50.320;8.054;2022-08-20T01:04:49;2.15;;;1.80;;
35907;SDS011;22003;50.320;8.054;2022-08-20T01:07:18;1.92;;;1.73;;
35907;SDS011;22003;50.320;8.054;2022-08-20T01:09:56;3.20;;;2.05;;
35907;SDS011;22003;50.320;8.054;2022-08-20T01:12:22;3.53;;;2.13;;
35907;SDS011;22003;50.320;8.054;2022-08-20T01:14:47;2.28;;;1.83;;
35907;SDS011;22003;50.320;8.054;2022-08-20T01:17:14;2.10;;;1.55;;
35907;SDS011;22003;50.320;8.054;2022-08-20T01:19:45;1.70;;;1.60;;
35907;SDS011;22003;50.320;8.054;2022-08-20T01:22:13;1.92;;;1.75;;
35907;SDS011;22003;50.320;8.054;2022-08-20T01:25:06;2.65;;;2.10;;
35907;SDS011;22003;50.320;8.054;2022-08-20T01:27:46;3.42;;;1.90;;
35907;SDS011;22003;50.320;8.054;2022-08-20T01:32:39;2.28;;;1.73;;
35907;SDS011;22003;50.320;8.054;2022-08-20T01:35:05;2.20;;;1.90;;
35907;SDS011;22003;50.320;8.054;2022-08-20T01:37:32;2.22;;;1.77;;
35907;SDS011;22003;50.320;8.054;2022-08-20T01:39:57;3.13;;;1.88;;
35907;SDS011;22003;50.320;8.054;2022-08-20T01:45:45;2.40;;;1.92;;
35907;SDS011;22003;50.320;8.054;2022-08-20T01:48:10;1.98;;;1.45;;
35907;SDS011;22003;50.320;8.054;2022-08-20T01:50:39;3.30;;;1.83;;
35907;SDS011;22003;50.320;8.054;2022-08-20T01:53:12;2.92;;;1.90;;
35907;SDS011;22003;50.320;8.054;2022-08-20T01:55:42;2.75;;;1.90;;
35907;SDS011;22003;50.320;8.054;2022-08-20T01:58:07;2.10;;;1.90;;
35907;SDS011;22003;50.320;8.054;2022-08-20T02:00:33;2.72;;;1.77;;
35907;SDS011;22003;50.320;8.054;2022-08-20T02:02:59;2.00;;;1.80;;
35907;SDS011;22003;50.320;8.054;2022-08-20T02:05:27;1.65;;;1.55;;
35907;SDS011;22003;50.320;8.054;2022-08-20T02:07:53;2.22;;;1.60;;
35907;SDS011;22003;50.320;8.054;2022-08-20T02:10:19;5.40;;;2.17;;
35907;SDS011;22003;50.320;8.054;2022-08-20T02:12:45;2.25;;;1.80;;
35907;SDS011;22003;50.320;8.054;2022-08-20T02:15:10;2.92;;;1.90;;
35907;SDS011;22003;50.320;8.054;2022-08-20T02:17:37;2.73;;;1.93;;
35907;SDS011;22003;50.320;8.054;2022-08-20T02:20:06;2.08;;;1.73;;
35907;SDS011;22003;50.320;8.054;2022-08-20T02:22:50;2.28;;;1.30;;
35907;SDS011;22003;50.320;8.054;2022-08-20T02:25:21;1.42;;;1.33;;
35907;SDS011;22003;50.320;8.054;2022-08-20T02:27:48;1.92;;;1.60;;
35907;SDS011;22003;50.320;8.054;2022-08-20T02:30:18;2.47;;;1.70;;
35907;SDS011;22003;50.320;8.054;2022-08-20T02:32:46;1.50;;;1.40;;
35907;SDS011;22003;50.320;8.054;2022-08-20T02:35:12;2.83;;;1.60;;
35907;SDS011;22003;50.320;8.054;2022-08-20T02:37:38;2.15;;;1.90;;
35907;SDS011;22003;50.320;8.054;2022-08-20T02:40:09;3.50;;;1.65;;
35907;SDS011;22003;50.320;8.054;2022-08-20T02:42:38;3.08;;;1.73;;
35907;SDS011;22003;50.320;8.054;2022-08-20T02:45:06;3.65;;;1.70;;
35907;SDS011;22003;50.320;8.054;2022-08-20T02:47:31;2.25;;;1.52;;
35907;SDS011;22003;50.320;8.054;2022-08-20T02:49:57;1.90;;;1.55;;
35907;SDS011;22003;50.320;8.054;2022-08-20T02:52:23;2.20;;;2.00;;
35907;SDS011;22003;50.320;8.054;2022-08-20T02:54:49;2.03;;;1.88;;
35907;SDS011;22003;50.320;8.054;2022-08-20T02:57:17;2.10;;;1.58;;
35907;SDS011;22003;50.320;8.054;2022-08-20T02:59:47;2.67;;;2.17;;
35907;SDS011;22003;50.320;8.054;2022-08-20T03:02:14;1.67;;;1.58;;
35907;SDS011;22003;50.320;8.054;2022-08-20T03:04:40;1.88;;;1.58;;
35907;SDS011;22003;50.320;8.054;2022-08-20T03:07:06;1.85;;;1.40;;
35907;SDS011;22003;50.320;8.054;2022-08-20T03:09:34;2.13;;;1.73;;
35907;SDS011;22003;50.320;8.054;2022-08-20T03:12:00;3.05;;;1.60;;
35907;SDS011;22003;50.320;8.054;2022-08-20T03:14:26;2.25;;;1.75;;
35907;SDS011;22003;50.320;8.054;2022-08-20T03:16:52;2.22;;;1.50;;
35907;SDS011;22003;50.320;8.054;2022-08-20T03:19:18;2.67;;;1.45;;
35907;SDS011;22003;50.320;8.054;2022-08-20T03:21:43;3.10;;;1.80;;
35907;SDS011;22003;50.320;8.054;2022-08-20T03:24:09;2.65;;;1.65;;
35907;SDS011;22003;50.320;8.054;2022-08-20T03:26:34;1.95;;;1.63;;
35907;SDS011;22003;50.320;8.054;2022-08-20T03:29:01;2.20;;;1.73;;
35907;SDS011;22003;50.320;8.054;2022-08-20T03:31:27;2.65;;;1.90;;
35907;SDS011;22003;50.320;8.054;2022-08-20T03:33:53;1.63;;;1.52;;
35907;SDS011;22003;50.320;8.054;2022-08-20T03:36:22;2.10;;;1.90;;
35907;SDS011;22003;50.320;8.054;2022-08-20T03:38:49;2.40;;;2.10;;
35907;SDS011;22003;50.320;8.054;2022-08-20T03:41:14;2.92;;;2.25;;
35907;SDS011;22003;50.320;8.054;2022-08-20T03:43:40;3.20;;;2.70;;
35907;SDS011;22003;50.320;8.054;2022-08-20T03:46:05;3.83;;;2.92;;
35907;SDS011;22003;50.320;8.054;2022-08-20T03:48:31;5.07;;;3.60;;
35907;SDS011;22003;50.320;8.054;2022-08-20T03:50:57;4.43;;;3.42;;
35907;SDS011;22003;50.320;8.054;2022-08-20T03:53:24;4.65;;;3.30;;
35907;SDS011;22003;50.320;8.054;2022-08-20T03:55:55;4.22;;;2.85;;
35907;SDS011;22003;50.320;8.054;2022-08-20T03:58:24;4.05;;;2.78;;
35907;SDS011;22003;50.320;8.054;2022-08-20T04:00:52;4.90;;;2.88;;
35907;SDS011;22003;50.320;8.054;2022-08-20T04:03:18;4.00;;;2.50;;
35907;SDS011;22003;50.320;8.054;2022-08-20T04:05:43;2.53;;;2.30;;
35907;SDS011;22003;50.320;8.054;2022-08-20T04:11:32;2.53;;;2.33;;
35907;SDS011;22003;50.320;8.054;2022-08-20T04:13:57;2.67;;;1.90;;
35907;SDS011;22003;50.320;8.054;2022-08-20T04:16:23;2.58;;;2.30;;
35907;SDS011;22003;50.320;8.054;2022-08-20T04:18:48;4.05;;;2.38;;
35907;SDS011;22003;50.320;8.054;2022-08-20T04:21:13;3.80;;;2.67;;
35907;SDS011;22003;50.320;8.054;2022-08-20T04:23:38;2.90;;;2.13;;
35907;SDS011;22003;50.320;8.054;2022-08-20T04:26:04;5.78;;;2.30;;
35907;SDS011;22003;50.320;8.054;2022-08-20T04:28:29;4.28;;;2.45;;
35907;SDS011;22003;50.320;8.054;2022-08-20T04:30:55;3.15;;;2.65;;
35907;SDS011;22003;50.320;8.054;2022-08-20T04:33:23;2.92;;;2.65;;
35907;SDS011;22003;50.320;8.054;2022-08-20T04:35:50;3.95;;;2.65;;
35907;SDS011;22003;50.320;8.054;2022-08-20T04:38:17;3.20;;;2.63;;
35907;SDS011;22003;50.320;8.054;2022-08-20T04:40:44;3.72;;;3.05;;
35907;SDS011;22003;50.320;8.054;2022-08-20T04:43:22;5.70;;;3.58;;
35907;SDS011;22003;50.320;8.054;2022-08-20T04:45:56;6.90;;;4.20;;
35907;SDS011;22003;50.320;8.054;2022-08-20T04:48:23;5.10;;;3.70;;
35907;SDS011;22003;50.320;8.054;2022-08-20T04:50:51;5.55;;;3.80;;
35907;SDS011;22003;50.320;8.054;2022-08-20T04:53:18;4.70;;;3.80;;
35907;SDS011;22003;50.320;8.054;2022-08-20T04:58:14;3.80;;;3.20;;
35907;SDS011;22003;50.320;8.054;2022-08-20T05:00:46;6.65;;;3.72;;
35907;SDS011;22003;50.320;8.054;2022-08-20T05:03:13;5.15;;;3.92;;
35907;SDS011;22003;50.320;8.054;2022-08-20T05:05:39;4.53;;;3.70;;
35907;SDS011;22003;50.320;8.054;2022-08-20T05:08:05;7.10;;;3.78;;
35907;SDS011;22003;50.320;8.054;2022-08-20T05:10:30;4.20;;;3.38;;
35907;SDS011;22003;50.320;8.054;2022-08-20T05:12:55;4.25;;;3.15;;
35907;SDS011;22003;50.320;8.054;2022-08-20T05:15:21;5.38;;;3.50;;
35907;SDS011;22003;50.320;8.054;2022-08-20T05:17:53;5.05;;;3.45;;
35907;SDS011;22003;50.320;8.054;2022-08-20T05:20:20;4.53;;;3.80;;
35907;SDS011;22003;50.320;8.054;2022-08-20T05:22:46;6.55;;;3.67;;
35907;SDS011;22003;50.320;8.054;2022-08-20T05:25:11;7.25;;;3.60;;
35907;SDS011;22003;50.320;8.054;2022-08-20T05:27:37;4.55;;;3.95;;
35907;SDS011;22003;50.320;8.054;2022-08-20T05:30:05;7.68;;;4.78;;
35907;SDS011;22003;50.320;8.054;2022-08-20T05:32:32;7.40;;;6.10;;
35907;SDS011;22003;50.320;8.054;2022-08-20T05:34:59;8.63;;;6.07;;
35907;SDS011;22003;50.320;8.054;2022-08-20T05:37:25;7.28;;;5.95;;
35907;SDS011;22003;50.320;8.054;2022-08-20T05:39:51;9.50;;;5.75;;
35907;SDS011;22003;50.320;8.054;2022-08-20T05:42:16;7.28;;;5.60;;
35907;SDS011;22003;50.320;8.054;2022-08-20T05:44:41;7.38;;;5.22;;
35907;SDS011;22003;50.320;8.054;2022-08-20T05:47:07;6.35;;;4.50;;
35907;SDS011;22003;50.320;8.054;2022-08-20T05:49:33;5.95;;;4.93;;
35907;SDS011;22003;50.320;8.054;2022-08-20T05:51:59;7.38;;;5.30;;
35907;SDS011;22003;50.320;8.054;2022-08-20T05:54:24;7.53;;;4.57;;
35907;SDS011;22003;50.320;8.054;2022-08-20T05:56:49;6.68;;;4.53;;
35907;SDS011;22003;50.320;8.054;2022-08-20T05:59:15;6.43;;;4.25;;
35907;SDS011;22003;50.320;8.054;2022-08-20T06:01:41;6.07;;;4.53;;
35907;SDS011;22003;50.320;8.054;2022-08-20T06:04:07;5.20;;;4.43;;
35907;SDS011;22003;50.320;8.054;2022-08-20T06:07:00;6.47;;;4.38;;
35907;SDS011;22003;50.320;8.054;2022-08-20T06:09:28;10.05;;;5.05;;
35907;SDS011;22003;50.320;8.054;2022-08-20T06:11:54;5.38;;;4.30;;
35907;SDS011;22003;50.320;8.054;2022-08-20T06:14:20;7.10;;;4.60;;
35907;SDS011;22003;50.320;8.054;2022-08-20T06:16:45;5.95;;;3.95;;
35907;SDS011;22003;50.320;8.054;2022-08-20T06:19:11;5.82;;;3.83;;
35907;SDS011;22003;50.320;8.054;2022-08-20T06:21:37;6.60;;;4.88;;
35907;SDS011;22003;50.320;8.054;2022-08-20T06:24:04;5.10;;;4.60;;
35907;SDS011;22003;50.320;8.054;2022-08-20T06:26:30;5.00;;;4.15;;
35907;SDS011;22003;50.320;8.054;2022-08-20T06:31:24;5.30;;;4.07;;
35907;SDS011;22003;50.320;8.054;2022-08-20T06:33:49;4.82;;;3.88;;
35907;SDS011;22003;50.320;8.054;2022-08-20T06:36:15;4.93;;;3.78;;
35907;SDS011;22003;50.320;8.054;2022-08-20T06:38:40;5.85;;;4.13;;
35907;SDS011;22003;50.320;8.054;2022-08-20T06:41:06;4.53;;;4.13;;
35907;SDS011;22003;50.320;8.054;2022-08-20T06:43:32;3.95;;;3.55;;
35907;SDS011;22003;50.320;8.054;2022-08-20T06:45:57;5.40;;;4.05;;
35907;SDS011;22003;50.320;8.054;2022-08-20T06:48:23;4.85;;;4.00;;
35907;SDS011;22003;50.320;8.054;2022-08-20T06:50:48;6.00;;;4.07;;
35907;SDS011;22003;50.320;8.054;2022-08-20T06:53:16;6.93;;;4.75;;
35907;SDS011;22003;50.320;8.054;2022-08-20T06:55:43;5.65;;;4.38;;
35907;SDS011;22003;50.320;8.054;2022-08-20T06:58:12;4.30;;;3.72;;
35907;SDS011;22003;50.320;8.054;2022-08-20T07:00:38;5.22;;;3.85;;
35907;SDS011;22003;50.320;8.054;2022-08-20T07:03:06;7.07;;;4.57;;
35907;SDS011;22003;50.320;8.054;2022-08-20T07:05:33;8.35;;;4.38;;
35907;SDS011;22003;50.320;8.054;2022-08-20T07:08:00;4.70;;;3.92;;
35907;SDS011;22003;50.320;8.054;2022-08-20T07:10:26;6.22;;;4.45;;
35907;SDS011;22003;50.320;8.054;2022-08-20T07:12:53;5.65;;;4.38;;
35907;SDS011;22003;50.320;8.054;2022-08-20T07:15:19;4.97;;;4.07;;
35907;SDS011;22003;50.320;8.054;2022-08-20T07:17:47;5.95;;;5.07;;
35907;SDS011;22003;50.320;8.054;2022-08-20T07:20:15;4.43;;;3.45;;
35907;SDS011;22003;50.320;8.054;2022-08-20T07:22:40;4.38;;;3.83;;
35907;SDS011;22003;50.320;8.054;2022-08-20T07:25:07;4.43;;;3.80;;
35907;SDS011;22003;50.320;8.054;2022-08-20T07:27:35;4.55;;;3.58;;
35907;SDS011;22003;50.320;8.054;2022-08-20T07:30:00;3.38;;;2.90;;
35907;SDS011;22003;50.320;8.054;2022-08-20T07:33:03;4.35;;;3.63;;
35907;SDS011;22003;50.320;8.054;2022-08-20T07:35:29;4.55;;;3.13;;
35907;SDS011;22003;50.320;8.054;2022-08-20T07:37:54;4.50;;;3.78;;
35907;SDS011;22003;50.320;8.054;2022-08-20T07:40:21;3.88;;;2.97;;
35907;SDS011;22003;50.320;8.054;2022-08-20T07:42:51;4.65;;;3.33;;
35907;SDS011;22003;50.320;8.054;2022-08-20T07:45:17;5.45;;;3.60;;
35907;SDS011;22003;50.320;8.054;2022-08-20T07:47:43;4.82;;;3.13;;
35907;SDS011;22003;50.320;8.054;2022-08-20T07:50:11;5.72;;;3.38;;
35907;SDS011;22003;50.320;8.054;2022-08-20T07:52:41;3.97;;;2.85;;
35907;SDS011;22003;50.320;8.054;2022-08-20T07:55:07;4.57;;;3.50;;
35907;SDS011;22003;50.320;8.054;2022-08-20T07:57:35;5.07;;;2.90;;
35907;SDS011;22003;50.320;8.054;2022-08-20T08:00:02;3.25;;;2.95;;
35907;SDS011;22003;50.320;8.054;2022-08-20T08:02:31;6.70;;;2.95;;
35907;SDS011;22003;50.320;8.054;2022-08-20T08:04:57;4.40;;;3.85;;
35907;SDS011;22003;50.320;8.054;2022-08-20T08:07:22;3.30;;;3.00;;
35907;SDS011;22003;50.320;8.054;2022-08-20T08:09:49;3.75;;;3.42;;
35907;SDS011;22003;50.320;8.054;2022-08-20T08:12:14;3.20;;;2.90;;
35907;SDS011;22003;50.320;8.054;2022-08-20T08:14:41;3.70;;;3.33;;
35907;SDS011;22003;50.320;8.054;2022-08-20T08:17:08;3.60;;;3.30;;
35907;SDS011;22003;50.320;8.054;2022-08-20T08:19:36;3.90;;;3.50;;
35907;SDS011;22003;50.320;8.054;2022-08-20T08:22:10;3.25;;;2.95;;
35907;SDS011;22003;50.320;8.054;2022-08-20T08:24:37;3.80;;;3.17;;
35907;SDS011;22003;50.320;8.054;2022-08-20T08:27:03;4.55;;;3.35;;
35907;SDS011;22003;50.320;8.054;2022-08-20T08:29:29;3.38;;;3.08;;
35907;SDS011;22003;50.320;8.054;2022-08-20T08:31:55;3.10;;;2.83;;
35907;SDS011;22003;50.320;8.054;2022-08-20T08:34:21;4.00;;;2.90;;
35907;SDS011;22003;50.320;8.054;2022-08-20T08:36:49;3.15;;;2.85;;
35907;SDS011;22003;50.320;8.054;2022-08-20T08:39:14;3.30;;;3.00;;
35907;SDS011;22003;50.320;8.054;2022-08-20T08:41:41;3.42;;;2.85;;
35907;SDS011;22003;50.320;8.054;2022-08-20T08:44:20;3.08;;;2.20;;
35907;SDS011;22003;50.320;8.054;2022-08-20T08:46:55;6.10;;;2.22;;
35907;SDS011;22003;50.320;8.054;2022-08-20T08:49:25;3.38;;;2.38;;
35907;SDS011;22003;50.320;8.054;2022-08-20T08:51:54;4.32;;;2.20;;
35907;SDS011;22003;50.320;8.054;2022-08-20T08:54:24;3.17;;;2.58;;
35907;SDS011;22003;50.320;8.054;2022-08-20T08:56:53;4.43;;;2.35;;
35907;SDS011;22003;50.320;8.054;2022-08-20T08:59:19;2.17;;;1.98;;
35907;SDS011;22003;50.320;8.054;2022-08-20T09:01:46;2.60;;;2.33;;
35907;SDS011;22003;50.320;8.054;2022-08-20T09:04:19;2.13;;;1.77;;
35907;SDS011;22003;50.320;8.054;2022-08-20T09:06:46;2.20;;;1.90;;
35907;SDS011;22003;50.320;8.054;2022-08-20T09:09:17;1.83;;;1.73;;
35907;SDS011;22003;50.320;8.054;2022-08-20T09:11:48;1.13;;;0.98;;
35907;SDS011;22003;50.320;8.054;2022-08-20T09:14:17;1.35;;;1.25;;
35907;SDS011;22003;50.320;8.054;2022-08-20T09:16:42;1.50;;;1.30;;
35907;SDS011;22003;50.320;8.054;2022-08-20T09:19:08;1.73;;;1.40;;
35907;SDS011;22003;50.320;8.054;2022-08-20T09:21:33;2.25;;;1.20;;
35907;SDS011;22003;50.320;8.054;2022-08-20T09:23:59;2.20;;;2.00;;
35907;SDS011;22003;50.320;8.054;2022-08-20T09:26:24;2.35;;;2.13;;
35907;SDS011;22003;50.320;8.054;2022-08-20T09:28:50;2.10;;;1.90;;
35907;SDS011;22003;50.320;8.054;2022-08-20T09:31:16;1.58;;;1.48;;
35907;SDS011;22003;50.320;8.054;2022-08-20T09:33:41;2.60;;;1.80;;
35907;SDS011;22003;50.320;8.054;2022-08-20T09:36:06;2.08;;;1.60;;
35907;SDS011;22003;50.320;8.054;2022-08-20T09:38:32;2.28;;;1.80;;
35907;SDS011;22003;50.320;8.054;2022-08-20T09:40:57;1.27;;;1.17;;
35907;SDS011;22003;50.320;8.054;2022-08-20T09:43:22;1.25;;;1.10;;
35907;SDS011;22003;50.320;8.054;2022-08-20T09:45:48;3.50;;;1.58;;
35907;SDS011;22003;50.320;8.054;2022-08-20T09:48:13;2.45;;;1.42;;
35907;SDS011;22003;50.320;8.054;2022-08-20T09:50:39;2.55;;;1.50;;
35907;SDS011;22003;50.320;8.054;2022-08-20T09:53:12;3.25;;;1.52;;
35907;SDS011;22003;50.320;8.054;2022-08-20T09:55:38;1.90;;;1.42;;
35907;SDS011;22003;50.320;8.054;2022-08-20T09:58:08;2.25;;;1.30;;
35907;SDS011;22003;50.320;8.054;2022-08-20T10:00:42;2.53;;;1.30;;
35907;SDS011;22003;50.320;8.054;2022-08-20T10:03:07;1.52;;;1.40;;
35907;SDS011;22003;50.320;8.054;2022-08-20T10:05:33;4.63;;;1.38;;
35907;SDS011;22003;50.320;8.054;2022-08-20T10:07:58;1.75;;;1.65;;
35907;SDS011;22003;50.320;8.054;2022-08-20T10:10:28;4.72;;;1.63;;
35907;SDS011;22003;50.320;8.054;2022-08-20T10:12:53;1.70;;;1.60;;
35907;SDS011;22003;50.320;8.054;2022-08-20T10:15:19;2.08;;;1.92;;
35907;SDS011;22003;50.320;8.054;2022-08-20T10:17:44;2.05;;;1.92;;
35907;SDS011;22003;50.320;8.054;2022-08-20T10:20:10;3.50;;;2.60;;
35907;SDS011;22003;50.320;8.054;2022-08-20T10:22:37;2.10;;;1.95;;
35907;SDS011;22003;50.320;8.054;2022-08-20T10:25:03;3.15;;;1.75;;
35907;SDS011;22003;50.320;8.054;2022-08-20T10:27:29;1.90;;;1.42;;
35907;SDS011;22003;50.320;8.054;2022-08-20T10:29:54;1.73;;;1.50;;
35907;SDS011;22003;50.320;8.054;2022-08-20T10:32:20;1.63;;;1.50;;
35907;SDS011;22003;50.320;8.054;2022-08-20T10:34:45;1.25;;;1.15;;
35907;SDS011;22003;50.320;8.054;2022-08-20T10:37:14;1.38;;;1.27;;
35907;SDS011;22003;50.320;8.054;2022-08-20T10:39:41;1.60;;;1.50;;
35907;SDS011;22003;50.320;8.054;2022-08-20T10:42:06;1.30;;;1.08;;
35907;SDS011;22003;50.320;8.054;2022-08-20T10:44:31;1.27;;;1.17;;
35907;SDS011;22003;50.320;8.054;2022-08-20T10:46:57;2.95;;;1.30;;
35907;SDS011;22003;50.320;8.054;2022-08-20T10:49:22;1.35;;;1.25;;
35907;SDS011;22003;50.320;8.054;2022-08-20T10:51:47;2.85;;;1.20;;
35907;SDS011;22003;50.320;8.054;2022-08-20T10:54:13;2.67;;;1.10;;
35907;SDS011;22003;50.320;8.054;2022-08-20T10:56:39;1.60;;;1.20;;
35907;SDS011;22003;50.320;8.054;2022-08-20T10:59:04;1.35;;;1.20;;
35907;SDS011;22003;50.320;8.054;2022-08-20T11:01:30;2.10;;;1.52;;
35907;SDS011;22003;50.320;8.054;2022-08-20T11:03:55;2.58;;;1.55;;
35907;SDS011;22003;50.320;8.054;2022-08-20T11:06:20;3.13;;;1.15;;
35907;SDS011;22003;50.320;8.054;2022-08-20T11:08:46;1.20;;;0.98;;
35907;SDS011;22003;50.320;8.054;2022-08-20T11:11:11;1.17;;;1.10;;
35907;SDS011;22003;50.320;8.054;2022-08-20T11:13:37;1.38;;;0.80;;
35907;SDS011;22003;50.320;8.054;2022-08-20T11:16:02;0.85;;;0.80;;
35907;SDS011;22003;50.320;8.054;2022-08-20T11:18:28;0.88;;;0.80;;
35907;SDS011;22003;50.320;8.054;2022-08-20T11:20:54;1.00;;;0.90;;
35907;SDS011;22003;50.320;8.054;2022-08-20T11:23:20;1.30;;;0.80;;
35907;SDS011;22003;50.320;8.054;2022-08-20T11:25:45;1.05;;;0.90;;
35907;SDS011;22003;50.320;8.054;2022-08-20T11:28:11;3.72;;;0.80;;
35907;SDS011;22003;50.320;8.054;2022-08-20T11:30:37;0.63;;;0.63;;
35907;SDS011;22003;50.320;8.054;2022-08-20T11:33:02;2.45;;;0.50;;
35907;SDS011;22003;50.320;8.054;2022-08-20T11:35:29;0.77;;;0.60;;
35907;SDS011;22003;50.320;8.054;2022-08-20T11:37:56;0.65;;;0.57;;
35907;SDS011;22003;50.320;8.054;2022-08-20T11:40:23;1.30;;;0.93;;
35907;SDS011;22003;50.320;8.054;2022-08-20T11:42:50;0.40;;;0.40;;
35907;SDS011;22003;50.320;8.054;2022-08-20T11:45:15;0.70;;;0.70;;
35907;SDS011;22003;50.320;8.054;2022-08-20T11:47:41;0.70;;;0.70;;
35907;SDS011;22003;50.320;8.054;2022-08-20T11:50:07;0.65;;;0.50;;
35907;SDS011;22003;50.320;8.054;2022-08-20T11:52:35;1.08;;;0.98;;
35907;SDS011;22003;50.320;8.054;2022-08-20T11:55:01;0.70;;;0.70;;
35907;SDS011;22003;50.320;8.054;2022-08-20T11:57:28;1.70;;;0.80;;
35907;SDS011;22003;50.320;8.054;2022-08-20T11:59:56;0.63;;;0.47;;
35907;SDS011;22003;50.320;8.054;2022-08-20T12:02:23;0.68;;;0.65;;
35907;SDS011;22003;50.320;8.054;2022-08-20T12:04:49;1.83;;;1.15;;
35907;SDS011;22003;50.320;8.054;2022-08-20T12:07:15;0.60;;;0.60;;
35907;SDS011;22003;50.320;8.054;2022-08-20T12:09:43;0.75;;;0.63;;
35907;SDS011;22003;50.320;8.054;2022-08-20T12:12:09;0.55;;;0.55;;
35907;SDS011;22003;50.320;8.054;2022-08-20T12:14:35;0.95;;;0.85;;
35907;SDS011;22003;50.320;8.054;2022-08-20T12:17:13;1.17;;;0.90;;
35907;SDS011;22003;50.320;8.054;2022-08-20T12:19:44;1.25;;;1.15;;
35907;SDS011;22003;50.320;8.054;2022-08-20T12:22:09;1.55;;;1.00;;
35907;SDS011;22003;50.320;8.054;2022-08-20T12:24:35;1.13;;;1.02;;
35907;SDS011;22003;50.320;8.054;2022-08-20T12:27:10;2.47;;;1.30;;
35907;SDS011;22003;50.320;8.054;2022-08-20T12:29:44;1.13;;;1.00;;
35907;SDS011;22003;50.320;8.054;2022-08-20T12:34:38;1.40;;;1.30;;
35907;SDS011;22003;50.320;8.054;2022-08-20T12:37:07;2.13;;;1.38;;
35907;SDS011;22003;50.320;8.054;2022-08-20T12:39:36;2.30;;;1.40;;
35907;SDS011;22003;50.320;8.054;2022-08-20T12:42:03;2.08;;;1.50;;
35907;SDS011;22003;50.320;8.054;2022-08-20T12:44:29;1.75;;;1.60;;
35907;SDS011;22003;50.320;8.054;2022-08-20T12:47:58;1.52;;;1.42;;
35907;SDS011;22003;50.320;8.054;2022-08-20T12:49:58;2.03;;;1.60;;
35907;SDS011;22003;50.320;8.054;2022-08-20T12:52:29;1.80;;;1.45;;
35907;SDS011;22003;50.320;8.054;2022-08-20T12:54:56;2.15;;;1.25;;
35907;SDS011;22003;50.320;8.054;2022-08-20T12:57:29;6.57;;;1.67;;
35907;SDS011;22003;50.320;8.054;2022-08-20T13:00:00;1.30;;;1.20;;
35907;SDS011;22003;50.320;8.054;2022-08-20T13:02:29;1.35;;;1.25;;
35907;SDS011;22003;50.320;8.054;2022-08-20T13:04:54;2.05;;;1.38;;
35907;SDS011;22003;50.320;8.054;2022-08-20T13:07:19;3.40;;;1.40;;
35907;SDS011;22003;50.320;8.054;2022-08-20T13:09:45;1.98;;;1.38;;
35907;SDS011;22003;50.320;8.054;2022-08-20T13:12:10;1.55;;;1.20;;
35907;SDS011;22003;50.320;8.054;2022-08-20T13:14:38;2.10;;;1.55;;
35907;SDS011;22003;50.320;8.054;2022-08-20T13:17:04;1.40;;;1.30;;
35907;SDS011;22003;50.320;8.054;2022-08-20T13:19:29;2.15;;;1.05;;
35907;SDS011;22003;50.320;8.054;2022-08-20T13:21:57;1.85;;;1.38;;
35907;SDS011;22003;50.320;8.054;2022-08-20T13:24:22;1.25;;;1.13;;
35907;SDS011;22003;50.320;8.054;2022-08-20T13:26:48;1.35;;;1.20;;
35907;SDS011;22003;50.320;8.054;2022-08-20T13:29:14;1.50;;;1.20;;
35907;SDS011;22003;50.320;8.054;2022-08-20T13:31:41;1.30;;;1.20;;
35907;SDS011;22003;50.320;8.054;2022-08-20T13:34:06;1.33;;;1.23;;
35907;SDS011;22003;50.320;8.054;2022-08-20T13:36:32;2.20;;;1.65;;
35907;SDS011;22003;50.320;8.054;2022-08-20T13:38:58;1.17;;;1.08;;
35907;SDS011;22003;50.320;8.054;2022-08-20T13:41:24;2.10;;;1.30;;
35907;SDS011;22003;50.320;8.054;2022-08-20T13:43:49;2.35;;;1.33;;
35907;SDS011;22003;50.320;8.054;2022-08-20T13:46:14;2.40;;;1.30;;
35907;SDS011;22003;50.320;8.054;2022-08-20T13:48:39;2.55;;;1.48;;
35907;SDS011;22003;50.320;8.054;2022-08-20T13:51:05;1.35;;;1.23;;
35907;SDS011;22003;50.320;8.054;2022-08-20T13:53:30;2.95;;;1.70;;
35907;SDS011;22003;50.320;8.054;2022-08-20T13:55:55;2.45;;;1.38;;
35907;SDS011;22003;50.320;8.054;2022-08-20T13:58:21;1.90;;;1.10;;
35907;SDS011;22003;50.320;8.054;2022-08-20T14:00:47;1.98;;;1.55;;
35907;SDS011;22003;50.320;8.054;2022-08-20T14:03:12;1.45;;;1.20;;
35907;SDS011;22003;50.320;8.054;2022-08-20T14:05:38;5.43;;;1.30;;
35907;SDS011;22003;50.320;8.054;2022-08-20T14:08:11;2.08;;;1.75;;
35907;SDS011;22003;50.320;8.054;2022-08-20T14:10:37;2.35;;;1.60;;
35907;SDS011;22003;50.320;8.054;2022-08-20T14:13:03;2.80;;;1.70;;
35907;SDS011;22003;50.320;8.054;2022-08-20T14:15:29;2.40;;;1.98;;
35907;SDS011;22003;50.320;8.054;2022-08-20T14:17:55;2.15;;;1.90;;
35907;SDS011;22003;50.320;8.054;2022-08-20T14:20:22;2.28;;;2.08;;
35907;SDS011;22003;50.320;8.054;2022-08-20T14:22:52;3.00;;;1.70;;
35907;SDS011;22003;50.320;8.054;2022-08-20T14:25:18;2.53;;;1.63;;
35907;SDS011;22003;50.320;8.054;2022-08-20T14:27:45;2.78;;;1.83;;
35907;SDS011;22003;50.320;8.054;2022-08-20T14:30:15;2.10;;;1.90;;
35907;SDS011;22003;50.320;8.054;2022-08-20T14:32:43;2.22;;;1.90;;
35907;SDS011;22003;50.320;8.054;2022-08-20T14:35:09;3.58;;;1.85;;
35907;SDS011;22003;50.320;8.054;2022-08-20T14:37:38;2.20;;;2.00;;
35907;SDS011;22003;50.320;8.054;2022-08-20T14:40:10;2.03;;;1.83;;
35907;SDS011;22003;50.320;8.054;2022-08-20T14:42:38;1.90;;;1.70;;
35907;SDS011;22003;50.320;8.054;2022-08-20T14:45:04;2.05;;;1.85;;
35907;SDS011;22003;50.320;8.054;2022-08-20T14:47:35;2.55;;;2.00;;
35907;SDS011;22003;50.320;8.054;2022-08-20T14:50:08;1.95;;;1.55;;
35907;SDS011;22003;50.320;8.054;2022-08-20T14:52:35;2.83;;;2.05;;
35907;SDS011;22003;50.320;8.054;2022-08-20T14:55:02;3.42;;;1.85;;
35907;SDS011;22003;50.320;8.054;2022-08-20T14:59:54;2.28;;;1.80;;
35907;SDS011;22003;50.320;8.054;2022-08-20T15:02:19;4.65;;;2.40;;
35907;SDS011;22003;50.320;8.054;2022-08-20T15:04:44;2.90;;;2.17;;
35907;SDS011;22003;50.320;8.054;2022-08-20T15:07:14;3.28;;;1.92;;